createdAt,value
2019-02-09T00:01:09.156Z,94.90
2019-02-09T00:04:01.323Z,94.90
2019-02-09T00:06:36.089Z,95.10
2019-02-09T00:12:29.894Z,94.80
2019-02-09T00:15:16.705Z,94.70
2019-02-09T00:17:51.615Z,94.50
2019-02-09T00:20:35.713Z,94.70
2019-02-09T00:27:42.037Z,94.60
2019-02-09T00:30:35.557Z,94.90
2019-02-09T00:49:13.941Z,94.90
2019-02-09T00:56:20.435Z,95.30
2019-02-09T00:59:41.987Z,95.10
2019-02-09T01:19:52.727Z,95.30
2019-02-09T04:14:38.274Z,96.30
2019-02-09T04:17:12.042Z,95.80
2019-02-09T04:19:44.965Z,95.10
2019-02-09T04:22:18.631Z,94.40
2019-02-09T04:24:54.557Z,93.90
2019-02-09T04:27:32.915Z,93.40
2019-02-09T04:30:10.607Z,93.00
2019-02-09T04:32:42.513Z,92.80
2019-02-09T04:35:23.837Z,92.80
2019-02-09T04:37:57.904Z,93.10
2019-02-09T04:40:34.168Z,92.80
2019-02-09T04:43:14.434Z,92.80
2019-02-09T04:45:50.182Z,92.90
2019-02-09T04:48:26.484Z,93.20
2019-02-09T04:57:06.034Z,94.10
2019-02-09T04:59:42.572Z,94.80
2019-02-09T05:02:21.790Z,95.10
2019-02-09T05:04:58.285Z,95.20
2019-02-09T05:10:29.907Z,95.40
2019-02-09T05:13:18.078Z,95.60
2019-02-09T05:16:29.113Z,95.70
2019-02-09T05:19:12.010Z,95.70
2019-02-09T05:22:10.165Z,95.80
2019-02-09T05:24:51.382Z,96.10
2019-02-09T05:27:32.338Z,96.20
2019-02-09T05:30:04.091Z,96.30
2019-02-09T05:32:37.937Z,96.30
2019-02-09T05:35:46.271Z,96.50
2019-02-09T05:38:23.539Z,96.50
2019-02-09T05:41:01.442Z,96.70
2019-02-09T05:43:46.649Z,96.80
2019-02-09T05:46:29.908Z,97.00
2019-02-09T05:49:05.897Z,96.80
2019-02-09T05:51:55.719Z,96.90
2019-02-09T05:54:42.724Z,96.90
2019-02-09T05:57:52.959Z,96.60
2019-02-09T06:00:32.225Z,96.50
2019-02-09T06:03:06.566Z,96.50
2019-02-09T06:05:38.968Z,96.50
2019-02-09T06:08:29.132Z,96.50
2019-02-09T06:11:05.469Z,96.50
2019-02-09T06:17:29.680Z,96.40
2019-02-09T06:24:07.408Z,96.50
2019-02-09T06:27:00.411Z,96.50
2019-02-09T06:29:32.728Z,96.70
2019-02-09T06:32:25.250Z,96.60
2019-02-09T06:35:32.089Z,96.70
2019-02-09T06:38:25.106Z,96.80
2019-02-09T06:41:01.681Z,96.70
2019-02-09T06:49:09.675Z,96.70
2019-02-09T06:52:22.479Z,96.60
2019-02-09T06:55:15.996Z,96.30
2019-02-09T06:57:50.575Z,96.20
2019-02-09T07:00:18.676Z,96.30
2019-02-09T07:02:46.981Z,96.10
2019-02-09T07:05:18.490Z,96.10
2019-02-09T07:07:48.391Z,96.00
2019-02-09T07:10:23.546Z,95.90
2019-02-09T07:13:17.339Z,95.90
2019-02-09T07:19:03.821Z,95.90
2019-02-09T07:21:35.602Z,95.80
2019-02-09T07:24:13.729Z,95.80
2019-02-09T07:26:45.414Z,95.70
2019-02-09T07:29:13.849Z,95.50
2019-02-09T07:31:42.451Z,95.40
2019-02-09T07:34:11.264Z,95.60
2019-02-09T07:36:43.437Z,95.40
2019-02-09T07:39:14.138Z,95.40
2019-02-09T07:41:45.243Z,95.30
2019-02-09T07:44:14.607Z,95.80
2019-02-09T07:46:42.641Z,95.20
2019-02-09T07:49:11.193Z,95.30
2019-02-09T07:51:43.348Z,94.90
2019-02-09T07:54:20.390Z,94.90
2019-02-09T07:56:55.448Z,95.10
2019-02-09T08:09:31.592Z,95.00
2019-02-09T08:12:34.393Z,95.10
2019-02-09T08:15:31.934Z,94.90
2019-02-09T08:18:18.461Z,95.00
2019-02-09T08:20:57.481Z,95.00
2019-02-09T08:23:43.953Z,95.00
2019-02-09T08:32:12.784Z,94.60
2019-02-09T08:35:47.008Z,94.50
2019-02-09T08:38:30.616Z,94.10
2019-02-09T08:41:27.000Z,93.30
2019-02-09T08:44:17.701Z,93.20
2019-02-09T08:46:45.535Z,92.20
2019-02-09T08:49:16.819Z,92.00
2019-02-09T08:51:53.990Z,91.30
2019-02-09T09:01:16.015Z,91.00
2019-02-09T09:03:44.080Z,90.60
2019-02-09T09:06:12.102Z,90.40
2019-02-09T09:08:40.454Z,90.90
2019-02-09T09:11:10.217Z,91.00
2019-02-09T09:13:38.345Z,91.00
2019-02-09T09:16:18.332Z,91.20
2019-02-09T09:18:51.013Z,92.70
2019-02-09T09:21:18.902Z,92.20
2019-02-09T09:23:46.542Z,90.90
2019-02-09T09:26:16.020Z,91.10
2019-02-09T09:28:43.856Z,91.20
2019-02-09T09:31:11.572Z,91.80
2019-02-09T09:33:39.287Z,91.50
2019-02-09T09:36:07.398Z,91.40
2019-02-09T09:38:35.012Z,91.40
2019-02-09T09:41:02.555Z,91.60
2019-02-09T09:43:30.465Z,91.70
2019-02-09T09:45:58.160Z,91.50
2019-02-09T09:48:26.080Z,91.30
2019-02-09T09:50:53.875Z,91.30
2019-02-09T09:53:21.658Z,91.30
2019-02-09T09:55:49.628Z,90.50
2019-02-09T09:58:17.559Z,90.60
2019-02-09T10:00:45.476Z,90.80
2019-02-09T10:03:13.294Z,90.60
2019-02-09T10:05:41.109Z,90.40
2019-02-09T10:08:08.992Z,90.50
2019-02-09T10:10:38.256Z,90.70
2019-02-09T10:13:07.135Z,90.60
2019-02-09T10:15:34.673Z,90.80
2019-02-09T10:18:02.397Z,90.90
2019-02-09T10:20:30.102Z,91.10
2019-02-09T10:22:57.591Z,91.20
2019-02-09T10:25:25.158Z,91.30
2019-02-09T10:27:54.121Z,91.50
2019-02-09T10:30:23.564Z,91.70
2019-02-09T10:32:51.352Z,91.70
2019-02-09T10:35:19.468Z,91.30
2019-02-09T10:37:47.237Z,91.20
2019-02-09T10:40:21.257Z,90.90
2019-02-09T10:42:49.852Z,90.80
2019-02-09T10:45:19.724Z,90.80
2019-02-09T10:47:47.815Z,90.60
2019-02-09T10:50:21.683Z,90.60
2019-02-09T10:52:49.536Z,90.50
2019-02-09T10:55:17.236Z,90.40
2019-02-09T10:57:44.803Z,90.10
2019-02-09T11:00:15.907Z,90.50
2019-02-09T11:02:43.842Z,90.30
2019-02-09T11:05:11.492Z,90.10
2019-02-09T11:07:39.529Z,89.80
2019-02-09T11:10:10.041Z,90.00
2019-02-09T11:12:37.639Z,89.70
2019-02-09T11:15:06.704Z,89.10
2019-02-09T11:17:36.640Z,88.40
2019-02-09T11:20:05.604Z,88.80
2019-02-09T11:22:41.876Z,88.50
2019-02-09T11:25:10.226Z,88.00
2019-02-09T11:27:38.739Z,87.90
2019-02-09T11:30:11.527Z,87.50
2019-02-09T11:32:41.661Z,86.50
2019-02-09T11:35:10.008Z,87.20
2019-02-09T11:37:38.512Z,87.00
2019-02-09T11:40:06.918Z,85.90
2019-02-09T11:42:34.533Z,85.80
2019-02-09T11:45:02.381Z,86.20
2019-02-09T11:47:29.901Z,85.30
2019-02-09T11:49:57.450Z,85.80
2019-02-09T11:52:25.356Z,86.20
2019-02-09T11:54:53.226Z,86.30
2019-02-09T11:57:21.066Z,86.00
2019-02-09T11:59:48.632Z,85.60
2019-02-09T12:02:16.168Z,85.60
2019-02-09T12:04:44.040Z,86.20
2019-02-09T12:07:11.582Z,86.50
2019-02-09T12:09:43.368Z,86.40
2019-02-09T12:12:11.016Z,87.10
2019-02-09T12:14:38.596Z,87.50
2019-02-09T12:17:06.247Z,87.60
2019-02-09T12:19:33.841Z,87.20
2019-02-09T12:22:01.833Z,87.70
2019-02-09T12:24:29.510Z,89.00
2019-02-09T12:26:57.121Z,90.70
2019-02-09T12:29:24.726Z,91.20
2019-02-09T12:31:57.915Z,90.70
2019-02-09T12:34:25.734Z,90.20
2019-02-09T12:36:53.344Z,89.50
2019-02-09T12:39:21.160Z,89.80
2019-02-09T12:41:49.066Z,89.30
2019-02-09T12:44:16.921Z,88.40
2019-02-09T12:46:44.555Z,87.80
2019-02-09T12:49:12.204Z,87.50
2019-02-09T12:51:40.092Z,87.90
2019-02-09T12:54:08.025Z,88.30
2019-02-09T12:56:35.636Z,88.50
2019-02-09T12:59:03.326Z,86.70
2019-02-09T13:01:30.912Z,86.50
2019-02-09T13:03:58.462Z,86.80
2019-02-09T13:06:26.238Z,86.90
2019-02-09T13:08:53.889Z,86.50
2019-02-09T13:11:22.733Z,86.50
2019-02-09T13:13:52.246Z,87.20
2019-02-09T13:16:20.467Z,87.10
2019-02-09T13:18:48.144Z,86.90
2019-02-09T13:21:16.553Z,86.50
2019-02-09T13:23:44.067Z,87.20
2019-02-09T13:26:11.660Z,87.30
2019-02-09T13:28:41.736Z,87.30
2019-02-09T13:31:10.935Z,87.10
2019-02-09T13:33:39.159Z,88.10
2019-02-09T13:36:08.557Z,88.40
2019-02-09T13:38:36.152Z,89.30
2019-02-09T13:41:26.335Z,89.20
2019-02-09T13:43:54.180Z,90.20
2019-02-09T13:46:39.778Z,90.70
2019-02-09T13:49:09.058Z,91.00
2019-02-09T13:51:43.800Z,91.30
2019-02-09T13:54:14.546Z,91.30
2019-02-09T13:56:43.902Z,91.40
2019-02-09T13:59:19.322Z,91.30
2019-02-09T14:01:47.366Z,91.30
2019-02-09T14:04:16.843Z,91.50
2019-02-09T14:06:44.335Z,91.90
2019-02-09T14:09:11.841Z,91.50
2019-02-09T14:11:39.353Z,91.60
2019-02-09T14:14:06.856Z,91.60
2019-02-09T14:16:38.677Z,91.60
2019-02-09T14:19:03.929Z,91.40
2019-02-09T14:21:35.759Z,91.20
2019-02-09T14:24:04.047Z,91.30
2019-02-09T14:26:31.516Z,91.20
2019-02-09T14:29:02.122Z,91.10
2019-02-09T14:31:29.892Z,90.90
2019-02-09T14:33:57.399Z,90.60
2019-02-09T14:36:24.899Z,90.90
2019-02-09T14:38:52.419Z,91.10
2019-02-09T14:41:19.937Z,90.90
2019-02-09T14:43:47.477Z,90.80
2019-02-09T14:46:15.540Z,90.60
2019-02-09T14:48:43.373Z,90.00
2019-02-09T14:51:10.930Z,90.20
2019-02-09T14:53:38.536Z,90.10
2019-02-09T14:56:14.598Z,90.00
2019-02-09T14:58:47.765Z,89.60
2019-02-09T15:01:16.121Z,90.30
2019-02-09T15:03:46.342Z,90.60
2019-02-09T15:06:26.381Z,90.20
2019-02-09T15:08:54.420Z,89.60
2019-02-09T15:11:22.499Z,88.60
2019-02-09T15:13:50.416Z,88.10
2019-02-09T15:16:43.369Z,88.30
2019-02-09T15:19:31.814Z,88.00
2019-02-09T15:22:00.327Z,87.70
2019-02-09T15:25:39.248Z,88.30
2019-02-09T15:28:07.558Z,88.30
2019-02-09T15:30:36.194Z,88.80
2019-02-09T15:33:04.930Z,89.10
2019-02-09T15:35:33.243Z,89.40
2019-02-09T15:38:01.248Z,89.70
2019-02-09T15:40:29.136Z,90.00
2019-02-09T15:42:57.393Z,90.00
2019-02-09T15:45:27.373Z,90.10
2019-02-09T15:47:55.852Z,90.10
2019-02-09T15:50:25.563Z,90.10
2019-02-09T15:52:53.747Z,90.10
2019-02-09T15:55:22.658Z,90.10
2019-02-09T15:58:00.388Z,90.30
2019-02-09T16:00:28.257Z,90.30
2019-02-09T16:03:09.207Z,90.20
2019-02-09T16:06:00.179Z,90.40
2019-02-09T16:08:31.246Z,90.30
2019-02-09T16:11:46.327Z,90.20
2019-02-09T16:14:26.802Z,90.10
2019-02-09T16:17:02.869Z,90.10
2019-02-09T16:20:11.033Z,90.00
2019-02-09T16:22:27.952Z,90.10
2019-02-09T16:25:02.208Z,89.70
2019-02-09T16:27:27.999Z,89.50
2019-02-09T16:30:06.193Z,89.10
2019-02-09T16:32:59.105Z,89.10
2019-02-09T16:35:27.029Z,88.50
2019-02-09T16:37:55.323Z,88.50
2019-02-09T16:40:24.954Z,89.70
2019-02-09T16:42:54.192Z,87.50
2019-02-09T16:45:30.293Z,87.90
2019-02-09T16:48:01.237Z,87.70
2019-02-09T16:50:32.316Z,87.00
2019-02-09T16:53:11.381Z,86.40
2019-02-09T16:55:49.988Z,86.40
2019-02-09T17:01:24.235Z,85.40
2019-02-09T17:04:07.188Z,85.20
2019-02-09T17:06:35.287Z,85.00
2019-02-09T17:09:15.719Z,85.10
2019-02-09T17:11:47.904Z,84.60
2019-02-09T17:14:51.329Z,84.60
2019-02-09T17:17:58.490Z,84.90
2019-02-09T17:20:26.735Z,84.60
2019-02-09T17:23:10.629Z,84.60
2019-02-09T17:25:40.852Z,84.70
2019-02-09T17:28:18.707Z,84.70
2019-02-09T17:31:00.624Z,84.40
2019-02-09T17:33:30.327Z,83.90
2019-02-09T17:36:21.794Z,84.10
2019-02-09T17:38:55.871Z,84.50
2019-02-09T17:41:40.431Z,84.40
2019-02-09T17:47:04.308Z,84.80
2019-02-09T17:49:59.944Z,84.70
2019-02-09T17:52:48.480Z,84.60
2019-02-09T17:55:49.506Z,85.00
2019-02-09T17:58:27.736Z,84.90
2019-02-09T18:04:39.294Z,85.40
2019-02-09T18:07:27.416Z,85.30
2019-02-09T18:10:13.095Z,85.70
2019-02-09T18:13:06.845Z,85.90
2019-02-09T18:16:27.495Z,85.60
2019-02-09T18:18:58.164Z,85.80
2019-02-09T18:21:38.436Z,85.80
2019-02-09T18:24:22.888Z,85.60
2019-02-09T18:26:51.692Z,85.40
2019-02-09T18:29:19.576Z,85.50
2019-02-09T18:31:53.978Z,85.20
2019-02-09T18:34:22.121Z,85.60
2019-02-09T18:37:42.436Z,85.90
2019-02-09T18:40:15.334Z,85.90
2019-02-09T18:42:43.765Z,85.50
2019-02-09T18:48:09.065Z,86.20
2019-02-09T18:51:13.768Z,86.30
2019-02-09T18:53:41.694Z,86.70
2019-02-09T18:56:11.594Z,86.70
2019-02-09T18:58:45.209Z,86.70
2019-02-09T19:01:31.319Z,86.70
2019-02-09T19:04:04.284Z,86.60
2019-02-09T19:06:39.928Z,87.00
2019-02-09T19:09:22.379Z,86.90
2019-02-09T19:12:13.593Z,87.30
2019-02-09T19:14:44.256Z,87.20
2019-02-09T19:17:30.332Z,87.30
2019-02-09T19:20:09.304Z,87.00
2019-02-09T19:22:57.867Z,86.90
2019-02-09T19:25:27.753Z,87.80
2019-02-09T19:31:11.394Z,87.30
2019-02-09T19:34:09.233Z,87.30
2019-02-09T19:37:17.715Z,87.00
2019-02-09T19:40:05.504Z,87.00
2019-02-09T19:42:33.354Z,87.40
2019-02-09T19:45:05.900Z,87.20
2019-02-09T19:47:33.805Z,87.30
2019-02-09T19:50:13.301Z,87.30
2019-02-09T19:52:51.205Z,87.30
2019-02-09T19:56:20.889Z,87.30
2019-02-09T19:59:24.517Z,87.20
2019-02-09T20:20:16.516Z,88.10
2019-02-09T20:23:38.767Z,87.90
2019-02-09T20:26:44.126Z,88.20
2019-02-09T20:29:51.305Z,88.70
2019-02-09T20:48:15.096Z,89.40
2019-02-09T20:56:24.306Z,89.20
2019-02-09T20:59:08.428Z,89.10
2019-02-09T21:01:56.368Z,89.50
2019-02-09T21:04:30.471Z,89.40
2019-02-09T21:07:00.621Z,89.50
2019-02-09T21:09:51.931Z,89.30
2019-02-09T21:12:20.153Z,89.20
2019-02-09T21:15:10.693Z,89.00
2019-02-09T21:17:46.574Z,88.80
2019-02-09T21:20:28.507Z,88.90
2019-02-09T21:23:16.564Z,88.80
2019-02-09T21:26:10.153Z,88.50
2019-02-09T21:32:01.636Z,88.20
2019-02-09T21:34:37.340Z,88.00
2019-02-09T21:37:05.796Z,87.70
2019-02-09T21:39:45.192Z,87.60
2019-02-09T21:42:15.329Z,87.80
2019-02-09T21:51:25.265Z,88.80
2019-02-09T21:53:56.335Z,89.00
2019-02-09T21:56:35.797Z,89.20
2019-02-09T21:59:27.761Z,89.40
2019-02-09T22:02:22.249Z,89.50
2019-02-09T22:04:53.459Z,89.20
2019-02-09T22:07:21.352Z,89.70
2019-02-09T22:09:50.327Z,89.70
2019-02-09T22:13:12.386Z,90.00
2019-02-09T22:15:43.766Z,90.10
2019-02-09T22:18:11.690Z,90.20
2019-02-09T22:20:40.161Z,90.40
2019-02-09T22:23:30.628Z,90.50
2019-02-09T22:26:12.963Z,90.50
2019-02-09T22:28:42.878Z,90.60
2019-02-09T22:31:21.578Z,90.50
2019-02-09T22:33:49.547Z,90.50
2019-02-09T22:36:37.164Z,90.60
2019-02-09T22:42:45.121Z,91.00
2019-02-09T22:45:14.108Z,91.10
2019-02-09T22:47:42.705Z,91.40
2019-02-09T22:50:31.137Z,91.30
2019-02-09T22:52:59.751Z,91.60
2019-02-09T22:55:27.804Z,91.80
2019-02-09T22:57:55.870Z,91.70
2019-02-09T23:00:36.240Z,91.70
2019-02-09T23:03:10.071Z,91.60
2019-02-09T23:06:25.672Z,91.40
2019-02-09T23:08:53.870Z,91.30
2019-02-09T23:11:21.921Z,91.40
2019-02-09T23:13:49.891Z,91.50
2019-02-09T23:16:18.009Z,91.50
2019-02-09T23:18:46.297Z,91.50
2019-02-09T23:21:14.905Z,91.50
2019-02-09T23:23:46.976Z,91.70
2019-02-09T23:26:16.474Z,91.80
2019-02-09T23:28:44.716Z,91.80
2019-02-09T23:31:13.232Z,91.80
2019-02-09T23:33:41.890Z,91.70
2019-02-09T23:36:16.163Z,91.90
2019-02-09T23:38:40.666Z,91.90
2019-02-09T23:41:10.493Z,92.00
2019-02-09T23:51:02.455Z,92.40
2019-02-09T23:53:51.177Z,92.50
2019-02-09T23:56:30.053Z,92.60
